createdAt,value
2022-07-25T00:01:49.996Z,13.48
2022-07-25T00:04:17.634Z,11.23
2022-07-25T00:06:46.012Z,14.65
2022-07-25T00:09:13.329Z,14.27
2022-07-25T00:11:40.466Z,13.90
2022-07-25T00:14:07.857Z,14.07
2022-07-25T00:16:35.088Z,15.18
2022-07-25T00:19:02.393Z,12.70
2022-07-25T00:21:29.524Z,15.45
2022-07-25T00:23:56.519Z,16.73
2022-07-25T00:26:23.698Z,15.60
2022-07-25T00:28:50.810Z,14.90
2022-07-25T00:31:17.703Z,19.88
2022-07-25T00:33:44.627Z,18.15
2022-07-25T00:36:11.683Z,18.33
2022-07-25T00:38:38.598Z,22.63
2022-07-25T00:41:05.711Z,19.60
2022-07-25T00:43:32.765Z,14.05
2022-07-25T00:46:00.590Z,14.35
2022-07-25T00:48:29.025Z,11.88
2022-07-25T00:50:57.138Z,21.00
2022-07-25T00:53:24.741Z,16.27
2022-07-25T00:55:52.802Z,18.13
2022-07-25T00:58:20.047Z,14.65
2022-07-25T01:00:48.396Z,15.43
2022-07-25T01:03:16.436Z,17.40
2022-07-25T01:05:43.392Z,15.98
2022-07-25T01:08:10.994Z,16.88
2022-07-25T01:10:38.163Z,13.95
2022-07-25T01:13:05.647Z,19.67
2022-07-25T01:15:32.916Z,13.68
2022-07-25T01:17:59.869Z,19.13
2022-07-25T01:20:29.655Z,15.10
2022-07-25T01:22:57.662Z,19.42
2022-07-25T01:25:25.566Z,19.15
2022-07-25T01:27:55.780Z,19.38
2022-07-25T01:30:25.138Z,14.48
2022-07-25T01:32:53.045Z,17.48
2022-07-25T01:35:20.133Z,15.93
2022-07-25T01:37:47.141Z,15.68
2022-07-25T01:40:14.904Z,15.85
2022-07-25T01:42:43.136Z,14.15
2022-07-25T01:45:11.572Z,14.68
2022-07-25T01:47:39.370Z,18.95
2022-07-25T01:50:07.360Z,15.98
2022-07-25T01:52:34.217Z,18.40
2022-07-25T01:55:01.068Z,17.25
2022-07-25T01:57:31.076Z,14.65
2022-07-25T01:59:59.548Z,12.77
2022-07-25T02:02:27.368Z,14.55
2022-07-25T02:04:54.536Z,14.38
2022-07-25T02:07:21.489Z,16.75
2022-07-25T02:09:52.120Z,21.13
2022-07-25T02:12:21.760Z,16.05
2022-07-25T02:14:48.612Z,16.20
2022-07-25T02:17:15.827Z,15.68
2022-07-25T02:19:42.912Z,19.35
2022-07-25T02:22:09.749Z,21.65
2022-07-25T02:24:37.396Z,18.83
2022-07-25T02:27:05.561Z,14.07
2022-07-25T02:29:33.509Z,12.95
2022-07-25T02:32:00.385Z,15.25
2022-07-25T02:34:27.603Z,12.40
2022-07-25T02:36:54.490Z,12.90
2022-07-25T02:39:21.573Z,12.23
2022-07-25T02:41:48.761Z,11.15
2022-07-25T02:44:15.563Z,10.32
2022-07-25T02:46:42.368Z,11.10
2022-07-25T02:49:10.153Z,13.35
2022-07-25T02:51:37.048Z,9.45
2022-07-25T02:54:04.008Z,10.23
2022-07-25T02:56:31.868Z,11.52
2022-07-25T02:58:59.332Z,10.60
2022-07-25T03:01:26.259Z,12.52
2022-07-25T03:03:53.246Z,13.52
2022-07-25T03:06:20.122Z,10.80
2022-07-25T03:08:46.964Z,12.25
2022-07-25T03:11:14.416Z,18.13
2022-07-25T03:13:41.497Z,11.35
2022-07-25T03:16:09.956Z,14.73
2022-07-25T03:18:37.307Z,14.52
2022-07-25T03:21:04.549Z,12.85
2022-07-25T03:23:32.455Z,13.70
2022-07-25T03:25:59.490Z,10.30
2022-07-25T03:28:26.360Z,20.30
2022-07-25T03:30:53.747Z,13.70
2022-07-25T03:33:20.695Z,10.73
2022-07-25T03:35:47.901Z,17.67
2022-07-25T03:38:14.737Z,11.80
2022-07-25T03:40:41.617Z,10.73
2022-07-25T03:43:09.061Z,9.32
2022-07-25T03:45:35.982Z,11.27
2022-07-25T03:48:03.093Z,8.05
2022-07-25T03:50:30.121Z,13.15
2022-07-25T03:52:56.977Z,12.70
2022-07-25T03:55:24.117Z,11.38
2022-07-25T03:57:51.124Z,10.65
2022-07-25T04:00:18.561Z,10.63
2022-07-25T04:02:45.588Z,6.20
2022-07-25T04:05:12.576Z,7.60
2022-07-25T04:07:39.904Z,8.50
2022-07-25T04:10:07.857Z,11.80
2022-07-25T04:12:35.041Z,9.32
2022-07-25T04:15:01.938Z,10.38
2022-07-25T04:17:28.776Z,7.90
2022-07-25T04:19:56.107Z,11.15
2022-07-25T04:22:23.590Z,9.70
2022-07-25T04:24:50.522Z,9.02
2022-07-25T04:27:17.535Z,8.38
2022-07-25T04:29:44.394Z,7.65
2022-07-25T04:32:11.340Z,13.30
2022-07-25T04:34:38.366Z,5.85
2022-07-25T04:37:05.306Z,12.40
2022-07-25T04:39:32.270Z,9.43
2022-07-25T04:41:59.167Z,8.10
2022-07-25T04:44:26.210Z,7.07
2022-07-25T04:46:53.419Z,9.63
2022-07-25T04:49:20.311Z,9.80
2022-07-25T04:51:47.227Z,6.25
2022-07-25T04:54:14.155Z,7.00
2022-07-25T04:56:40.997Z,7.95
2022-07-25T04:59:08.162Z,11.40
2022-07-25T05:01:35.966Z,8.10
2022-07-25T05:04:03.163Z,5.97
2022-07-25T05:06:30.170Z,12.93
2022-07-25T05:08:57.016Z,10.02
2022-07-25T05:11:24.015Z,7.72
2022-07-25T05:13:50.940Z,6.72
2022-07-25T05:16:17.833Z,9.43
2022-07-25T05:18:44.673Z,7.82
2022-07-25T05:21:12.692Z,9.05
2022-07-25T05:23:40.287Z,5.78
2022-07-25T05:26:07.160Z,8.35
2022-07-25T05:28:34.179Z,5.40
2022-07-25T05:31:01.477Z,8.23
2022-07-25T05:33:28.489Z,8.88
2022-07-25T05:35:55.450Z,8.52
2022-07-25T05:38:22.337Z,5.53
2022-07-25T05:40:52.473Z,6.22
2022-07-25T05:43:19.865Z,6.00
2022-07-25T05:45:47.843Z,5.72
2022-07-25T05:48:15.752Z,5.95
2022-07-25T05:50:42.879Z,6.95
2022-07-25T05:53:10.091Z,6.63
2022-07-25T05:55:40.247Z,9.52
2022-07-25T05:58:09.621Z,5.45
2022-07-25T06:00:38.118Z,5.55
2022-07-25T06:03:05.288Z,7.15
2022-07-25T06:05:32.623Z,6.20
2022-07-25T06:07:59.625Z,7.65
2022-07-25T06:10:26.618Z,8.35
2022-07-25T06:12:53.841Z,7.90
2022-07-25T06:15:22.518Z,4.88
2022-07-25T06:17:53.337Z,6.25
2022-07-25T06:20:20.630Z,4.63
2022-07-25T06:22:47.517Z,5.10
2022-07-25T06:25:15.180Z,7.38
2022-07-25T06:27:42.789Z,5.20
2022-07-25T06:30:19.664Z,6.45
2022-07-25T06:32:51.357Z,4.90
2022-07-25T06:35:18.948Z,7.22
2022-07-25T06:37:46.006Z,5.25
2022-07-25T06:40:13.511Z,4.38
2022-07-25T06:42:46.180Z,8.82
2022-07-25T06:45:14.452Z,6.10
2022-07-25T06:47:43.203Z,8.00
2022-07-25T06:50:14.783Z,5.30
2022-07-25T06:52:42.349Z,4.25
2022-07-25T06:55:11.184Z,4.40
2022-07-25T06:57:38.240Z,5.60
2022-07-25T07:00:10.205Z,3.95
2022-07-25T07:03:01.768Z,3.53
2022-07-25T07:05:33.511Z,4.65
2022-07-25T07:08:01.308Z,6.75
2022-07-25T07:10:28.857Z,3.75
2022-07-25T07:13:15.333Z,3.90
2022-07-25T07:15:50.266Z,6.55
2022-07-25T07:18:19.060Z,3.92
2022-07-25T07:20:47.513Z,8.05
2022-07-25T07:23:17.089Z,4.15
2022-07-25T07:25:47.278Z,6.18
2022-07-25T07:28:15.797Z,4.00
2022-07-25T07:33:30.129Z,4.75
2022-07-25T07:35:57.392Z,3.60
2022-07-25T07:38:25.258Z,4.85
2022-07-25T07:40:53.222Z,3.53
2022-07-25T07:43:20.651Z,5.78
2022-07-25T07:45:47.625Z,3.42
2022-07-25T07:48:14.658Z,3.60
2022-07-25T07:50:41.600Z,5.30
2022-07-25T07:53:08.577Z,5.03
2022-07-25T07:55:44.286Z,4.13
2022-07-25T07:58:16.986Z,4.30
2022-07-25T08:00:47.520Z,4.47
2022-07-25T08:03:20.523Z,5.45
2022-07-25T08:05:49.145Z,3.50
2022-07-25T08:08:17.020Z,4.55
2022-07-25T08:10:47.954Z,6.57
2022-07-25T08:13:28.430Z,3.75
2022-07-25T08:16:00.201Z,4.03
2022-07-25T08:18:30.184Z,6.10
2022-07-25T08:20:57.705Z,6.10
2022-07-25T08:23:25.863Z,7.43
2022-07-25T08:25:52.811Z,4.78
2022-07-25T08:28:20.399Z,4.35
2022-07-25T08:30:47.555Z,3.17
2022-07-25T08:33:18.526Z,5.10
2022-07-25T08:35:49.361Z,4.45
2022-07-25T08:38:16.657Z,3.22
2022-07-25T08:40:43.609Z,3.20
2022-07-25T08:43:16.068Z,3.22
2022-07-25T08:45:47.827Z,4.38
2022-07-25T08:48:18.842Z,3.28
2022-07-25T08:50:47.276Z,3.92
2022-07-25T08:53:32.666Z,3.75
2022-07-25T08:56:00.608Z,3.20
2022-07-25T08:58:27.552Z,3.35
2022-07-25T09:00:54.404Z,3.13
2022-07-25T09:03:21.891Z,2.08
2022-07-25T09:05:48.863Z,4.60
2022-07-25T09:08:20.611Z,3.20
2022-07-25T09:10:53.258Z,2.78
2022-07-25T09:13:22.745Z,4.70
2022-07-25T09:15:57.018Z,1.95
2022-07-25T09:18:27.573Z,1.47
2022-07-25T09:21:01.683Z,3.35
2022-07-25T09:23:38.157Z,4.60
2022-07-25T09:26:15.378Z,5.45
2022-07-25T09:28:48.304Z,5.00
2022-07-25T09:31:17.585Z,4.28
2022-07-25T09:34:01.787Z,3.80
2022-07-25T09:36:28.621Z,4.22
2022-07-25T09:39:02.893Z,3.30
2022-07-25T09:41:41.319Z,3.53
2022-07-25T09:44:30.381Z,4.93
2022-07-25T09:46:59.230Z,2.22
2022-07-25T09:49:27.039Z,2.08
2022-07-25T09:51:55.277Z,2.95
2022-07-25T09:54:24.215Z,3.97
2022-07-25T09:56:52.416Z,2.28
2022-07-25T09:59:21.787Z,4.45
2022-07-25T10:02:17.918Z,2.42
2022-07-25T10:05:08.294Z,4.10
2022-07-25T10:07:39.124Z,2.38
2022-07-25T10:10:07.101Z,3.50
2022-07-25T10:12:35.017Z,3.00
2022-07-25T10:15:13.988Z,3.05
2022-07-25T10:17:42.122Z,2.95
2022-07-25T10:20:11.246Z,1.80
2022-07-25T10:22:57.597Z,1.17
2022-07-25T10:25:25.131Z,1.20
2022-07-25T10:28:03.109Z,1.88
2022-07-25T10:30:39.593Z,1.23
2022-07-25T10:33:18.922Z,2.65
2022-07-25T10:35:46.492Z,3.53
2022-07-25T10:38:13.694Z,1.73
2022-07-25T10:40:46.748Z,1.95
2022-07-25T10:43:22.018Z,3.55
2022-07-25T10:45:57.220Z,1.55
2022-07-25T10:48:30.844Z,2.67
2022-07-25T10:51:08.385Z,2.50
2022-07-25T10:53:47.106Z,1.95
2022-07-25T10:56:27.177Z,2.90
2022-07-25T10:59:02.165Z,3.05
2022-07-25T11:01:36.741Z,1.20
2022-07-25T11:04:15.949Z,4.82
2022-07-25T11:06:43.665Z,2.15
2022-07-25T11:09:22.702Z,3.85
2022-07-25T11:11:57.399Z,2.40
2022-07-25T11:14:41.909Z,3.63
2022-07-25T11:17:15.823Z,5.07
2022-07-25T11:19:45.288Z,1.98
2022-07-25T11:22:12.389Z,1.20
2022-07-25T11:24:47.369Z,1.48
2022-07-25T11:27:40.755Z,1.23
2022-07-25T11:30:17.688Z,4.60
2022-07-25T11:32:50.006Z,0.70
2022-07-25T11:35:26.916Z,1.50
2022-07-25T11:37:55.453Z,7.25
2022-07-25T11:40:22.892Z,4.40
2022-07-25T11:42:53.114Z,7.10
2022-07-25T11:45:40.108Z,4.47
2022-07-25T11:48:13.552Z,4.40
2022-07-25T11:50:45.425Z,1.67
2022-07-25T11:53:14.926Z,2.40
2022-07-25T11:55:43.919Z,2.17
2022-07-25T11:58:15.497Z,2.10
2022-07-25T12:00:47.229Z,3.33
2022-07-25T12:03:20.474Z,1.63
2022-07-25T12:05:49.914Z,2.67
2022-07-25T12:08:20.874Z,1.77
2022-07-25T12:10:49.374Z,2.63
2022-07-25T12:13:24.617Z,2.13
2022-07-25T12:15:51.467Z,4.75
2022-07-25T12:18:18.604Z,2.72
2022-07-25T12:20:45.499Z,2.10
2022-07-25T12:23:14.567Z,2.30
2022-07-25T12:25:45.318Z,2.05
2022-07-25T12:28:13.124Z,2.58
2022-07-25T12:30:42.759Z,3.63
2022-07-25T12:33:10.125Z,1.90
2022-07-25T12:35:37.659Z,2.60
2022-07-25T12:38:05.295Z,3.70
2022-07-25T12:40:33.314Z,6.65
2022-07-25T12:43:00.559Z,2.20
2022-07-25T12:45:28.275Z,2.85
2022-07-25T12:47:55.974Z,3.17
2022-07-25T12:50:25.992Z,3.38
2022-07-25T12:52:53.797Z,2.83
2022-07-25T12:55:21.783Z,5.82
2022-07-25T12:57:50.245Z,3.88
2022-07-25T13:00:21.850Z,3.80
2022-07-25T13:02:52.210Z,3.42
2022-07-25T13:05:20.641Z,3.03
2022-07-25T13:07:49.337Z,3.90
2022-07-25T13:10:17.650Z,4.25
2022-07-25T13:12:45.017Z,3.65
2022-07-25T13:15:11.960Z,2.97
2022-07-25T13:17:40.572Z,4.35
2022-07-25T13:20:08.811Z,7.93
2022-07-25T13:22:35.773Z,6.93
2022-07-25T13:25:02.696Z,6.80
2022-07-25T13:27:29.516Z,5.90
2022-07-25T13:29:58.127Z,4.30
2022-07-25T13:32:26.834Z,5.20
2022-07-25T13:34:53.690Z,6.10
2022-07-25T13:37:20.813Z,3.75
2022-07-25T13:39:47.733Z,5.07
2022-07-25T13:42:14.592Z,6.60
2022-07-25T13:44:41.466Z,7.65
2022-07-25T13:47:08.818Z,5.32
2022-07-25T13:49:37.141Z,7.00
2022-07-25T13:52:04.678Z,5.38
2022-07-25T13:54:31.857Z,5.22
2022-07-25T13:56:59.212Z,4.90
2022-07-25T13:59:26.070Z,5.32
2022-07-25T14:01:52.982Z,4.20
2022-07-25T14:04:20.198Z,4.88
2022-07-25T14:06:52.249Z,3.22
2022-07-25T14:09:20.956Z,3.80
2022-07-25T14:11:48.273Z,4.38
2022-07-25T14:14:15.459Z,5.60
2022-07-25T14:16:42.368Z,3.47
2022-07-25T14:19:10.379Z,5.68
2022-07-25T14:21:38.099Z,3.70
2022-07-25T14:24:05.676Z,2.10
2022-07-25T14:26:35.048Z,7.03
2022-07-25T14:29:02.562Z,3.78
2022-07-25T14:31:29.736Z,4.03
2022-07-25T14:33:56.932Z,5.38
2022-07-25T14:36:24.181Z,2.88
2022-07-25T14:38:51.122Z,4.75
2022-07-25T14:41:19.746Z,4.45
2022-07-25T14:43:46.597Z,4.07
2022-07-25T14:46:14.059Z,3.67
2022-07-25T14:48:41.621Z,3.28
2022-07-25T14:51:08.702Z,5.57
2022-07-25T14:53:36.278Z,6.20
2022-07-25T14:56:05.735Z,4.47
2022-07-25T14:58:33.760Z,6.75
2022-07-25T15:01:00.994Z,2.47
2022-07-25T15:03:27.992Z,3.55
2022-07-25T15:05:54.868Z,2.67
2022-07-25T15:08:22.385Z,3.72
2022-07-25T15:10:49.415Z,2.60
2022-07-25T15:13:32.589Z,4.78
2022-07-25T15:16:01.105Z,7.60
2022-07-25T15:18:28.799Z,2.75
2022-07-25T15:20:55.727Z,3.58
2022-07-25T15:23:25.839Z,1.70
2022-07-25T15:26:01.767Z,1.27
2022-07-25T15:28:32.681Z,3.03
2022-07-25T15:30:59.607Z,3.38
2022-07-25T15:33:26.596Z,3.30
2022-07-25T15:35:53.580Z,5.22
2022-07-25T15:38:20.726Z,2.53
2022-07-25T15:40:48.212Z,5.50
2022-07-25T15:43:15.117Z,3.42
2022-07-25T15:45:46.037Z,2.72
2022-07-25T15:48:15.133Z,5.05
2022-07-25T15:50:48.573Z,4.82
2022-07-25T15:53:16.000Z,2.28
2022-07-25T15:55:43.576Z,3.92
2022-07-25T15:58:11.668Z,4.10
2022-07-25T16:00:39.960Z,3.45
2022-07-25T16:03:07.823Z,4.05
2022-07-25T16:05:35.653Z,2.95
2022-07-25T16:08:03.599Z,2.33
2022-07-25T16:10:32.880Z,3.45
2022-07-25T16:13:00.357Z,3.28
2022-07-25T16:15:28.556Z,3.45
2022-07-25T16:18:01.883Z,3.95
2022-07-25T16:20:30.136Z,2.83
2022-07-25T16:22:59.301Z,4.40
2022-07-25T16:25:28.243Z,2.55
2022-07-25T16:27:55.690Z,3.95
2022-07-25T16:30:23.025Z,4.22
2022-07-25T16:32:49.920Z,4.93
2022-07-25T16:35:17.114Z,4.53
2022-07-25T16:37:44.464Z,2.72
2022-07-25T16:40:12.688Z,5.10
2022-07-25T16:42:39.917Z,4.20
2022-07-25T16:45:07.970Z,4.90
2022-07-25T16:47:35.199Z,2.85
2022-07-25T16:50:02.344Z,5.15
2022-07-25T16:52:29.181Z,4.38
2022-07-25T16:54:56.028Z,4.65
2022-07-25T16:57:24.729Z,3.03
2022-07-25T16:59:53.698Z,3.42
2022-07-25T17:02:28.904Z,5.88
2022-07-25T17:04:57.507Z,6.00
2022-07-25T17:07:25.183Z,4.90
2022-07-25T17:09:52.408Z,7.07
2022-07-25T17:12:20.283Z,3.80
2022-07-25T17:14:48.119Z,7.90
2022-07-25T17:17:14.941Z,6.75
2022-07-25T17:19:42.384Z,4.95
2022-07-25T17:22:10.720Z,5.30
2022-07-25T17:24:39.521Z,7.05
2022-07-25T17:27:08.448Z,6.70
2022-07-25T17:29:36.206Z,3.90
2022-07-25T17:32:07.321Z,5.55
2022-07-25T17:34:34.723Z,4.07
2022-07-25T17:37:03.190Z,7.18
2022-07-25T17:39:34.482Z,5.07
2022-07-25T17:42:02.224Z,4.57
2022-07-25T17:44:29.159Z,6.93
2022-07-25T17:46:56.074Z,5.43
2022-07-25T17:49:23.017Z,5.00
2022-07-25T17:51:50.299Z,6.93
2022-07-25T17:54:17.745Z,5.55
2022-07-25T17:56:45.588Z,6.45
2022-07-25T17:59:13.241Z,5.40
2022-07-25T18:01:40.259Z,6.80
2022-07-25T18:04:07.707Z,4.55
2022-07-25T18:06:34.988Z,7.45
2022-07-25T18:09:02.237Z,6.00
2022-07-25T18:11:29.115Z,6.70
2022-07-25T18:13:56.015Z,6.43
2022-07-25T18:16:23.223Z,11.68
2022-07-25T18:18:50.133Z,10.60
2022-07-25T18:21:17.306Z,10.20
2022-07-25T18:23:44.116Z,9.18
2022-07-25T18:26:11.097Z,7.35
2022-07-25T18:28:38.367Z,16.52
2022-07-25T18:31:05.875Z,10.27
2022-07-25T18:33:33.045Z,9.38
2022-07-25T18:36:04.098Z,11.65
2022-07-25T18:38:34.392Z,14.27
2022-07-25T18:41:27.479Z,10.35
2022-07-25T18:43:50.254Z,11.35
2022-07-25T18:46:18.201Z,9.95
2022-07-25T18:48:46.245Z,11.00
2022-07-25T18:51:13.490Z,9.32
2022-07-25T18:53:42.825Z,13.00
2022-07-25T18:56:13.337Z,15.60
2022-07-25T18:58:40.944Z,12.35
2022-07-25T19:01:09.463Z,11.40
2022-07-25T19:03:37.752Z,11.85
2022-07-25T19:06:05.565Z,14.55
2022-07-25T19:08:33.060Z,12.80
2022-07-25T19:11:00.117Z,10.88
2022-07-25T19:13:48.205Z,12.75
2022-07-25T19:16:15.691Z,12.65
2022-07-25T19:18:43.006Z,15.73
2022-07-25T19:21:10.613Z,10.32
2022-07-25T19:23:37.658Z,12.68
2022-07-25T19:26:04.608Z,11.05
2022-07-25T19:28:31.583Z,12.82
2022-07-25T19:31:01.689Z,10.38
2022-07-25T19:33:34.830Z,11.65
2022-07-25T19:36:04.506Z,12.85
2022-07-25T19:38:31.452Z,9.80
2022-07-25T19:40:58.432Z,10.45
2022-07-25T19:43:25.626Z,8.90
2022-07-25T19:45:52.506Z,13.80
2022-07-25T19:48:23.815Z,14.25
2022-07-25T19:50:51.986Z,9.75
2022-07-25T19:53:19.153Z,12.60
2022-07-25T19:55:46.064Z,12.88
2022-07-25T19:58:12.888Z,10.50
2022-07-25T20:00:40.133Z,12.35
2022-07-25T20:03:07.281Z,11.23
2022-07-25T20:05:34.766Z,13.52
2022-07-25T20:08:01.815Z,12.60
2022-07-25T20:10:28.828Z,10.02
2022-07-25T20:12:59.566Z,9.27
2022-07-25T20:15:28.586Z,9.23
2022-07-25T20:17:56.930Z,10.88
2022-07-25T20:20:24.875Z,11.50
2022-07-25T20:22:52.108Z,10.07
2022-07-25T20:25:20.021Z,10.18
2022-07-25T20:27:49.854Z,11.73
2022-07-25T20:30:18.063Z,10.73
2022-07-25T20:32:45.237Z,13.35
2022-07-25T20:35:12.407Z,13.55
2022-07-25T20:37:39.489Z,13.43
2022-07-25T20:40:08.742Z,11.38
2022-07-25T20:42:37.989Z,11.90
2022-07-25T20:45:06.743Z,9.75
2022-07-25T20:47:34.611Z,10.32
2022-07-25T20:50:01.985Z,11.18
2022-07-25T20:52:30.419Z,10.85
2022-07-25T20:54:57.387Z,9.15
2022-07-25T20:57:24.386Z,7.80
2022-07-25T20:59:51.423Z,9.45
2022-07-25T21:02:18.822Z,11.45
2022-07-25T21:04:48.539Z,9.02
2022-07-25T21:07:16.925Z,8.68
2022-07-25T21:09:44.684Z,12.48
2022-07-25T21:12:11.615Z,12.15
2022-07-25T21:14:38.600Z,9.73
2022-07-25T21:17:06.914Z,9.77
2022-07-25T21:19:33.937Z,8.52
2022-07-25T21:22:02.180Z,7.55
2022-07-25T21:24:29.086Z,7.28
2022-07-25T21:26:55.919Z,8.02
2022-07-25T21:29:22.794Z,6.32
2022-07-25T21:31:50.039Z,7.20
2022-07-25T21:34:16.958Z,6.57
2022-07-25T21:36:43.814Z,5.43
2022-07-25T21:39:10.919Z,4.97
2022-07-25T21:41:38.024Z,7.18
2022-07-25T21:44:05.915Z,5.18
2022-07-25T21:46:32.927Z,6.18
2022-07-25T21:49:18.421Z,6.78
2022-07-25T21:52:05.830Z,8.98
2022-07-25T21:54:33.325Z,6.90
2022-07-25T21:57:00.177Z,7.57
2022-07-25T21:59:27.218Z,6.72
2022-07-25T22:01:54.089Z,11.02
2022-07-25T22:04:21.613Z,7.60
2022-07-25T22:06:48.600Z,9.20
2022-07-25T22:09:15.466Z,5.45
2022-07-25T22:11:46.434Z,6.15
2022-07-25T22:14:14.499Z,8.45
2022-07-25T22:16:42.173Z,6.90
2022-07-25T22:19:09.544Z,7.60
2022-07-25T22:21:36.831Z,6.40
2022-07-25T22:24:03.801Z,7.75
2022-07-25T22:26:30.624Z,6.82
2022-07-25T22:28:57.538Z,10.30
2022-07-25T22:31:24.446Z,6.72
2022-07-25T22:33:51.646Z,8.73
2022-07-25T22:36:18.699Z,9.05
2022-07-25T22:38:46.019Z,8.00
2022-07-25T22:41:13.147Z,7.90
2022-07-25T22:43:57.590Z,10.18
2022-07-25T22:46:28.577Z,10.02
2022-07-25T22:48:56.721Z,8.95
2022-07-25T22:51:24.286Z,10.10
2022-07-25T22:53:51.524Z,7.78
2022-07-25T22:56:18.957Z,8.82
2022-07-25T22:58:48.698Z,10.18
2022-07-25T23:01:17.903Z,7.05
2022-07-25T23:03:45.716Z,10.65
2022-07-25T23:06:13.296Z,7.65
2022-07-25T23:08:40.080Z,4.90
2022-07-25T23:11:07.004Z,5.38
2022-07-25T23:13:35.441Z,7.60
2022-07-25T23:16:03.413Z,9.95
2022-07-25T23:18:31.422Z,6.35
2022-07-25T23:20:58.495Z,6.45
2022-07-25T23:23:25.823Z,6.68
2022-07-25T23:25:52.860Z,10.20
2022-07-25T23:28:19.741Z,7.15
2022-07-25T23:30:47.204Z,7.60
2022-07-25T23:33:14.042Z,9.60
2022-07-25T23:35:42.415Z,9.43
2022-07-25T23:38:10.956Z,10.00
2022-07-25T23:40:37.996Z,9.70
2022-07-25T23:43:05.173Z,8.32
2022-07-25T23:45:32.584Z,8.00
2022-07-25T23:47:59.793Z,10.60
2022-07-25T23:50:26.897Z,10.20
2022-07-25T23:52:53.900Z,7.75
2022-07-25T23:55:20.822Z,9.73
2022-07-25T23:57:47.655Z,9.57
